sensor_id;sensor_type;location;lat;lon;timestamp;P1;durP1;ratioP1;P2;durP2;ratioP2
33357;SDS011;19717;42.614;23.418;2022-09-09T00:01:07;14.80;;;10.80;;
33357;SDS011;19717;42.614;23.418;2022-09-09T00:03:44;13.65;;;10.43;;
33357;SDS011;19717;42.614;23.418;2022-09-09T00:06:32;12.15;;;10.07;;
33357;SDS011;19717;42.614;23.418;2022-09-09T00:09:17;11.93;;;10.10;;
33357;SDS011;19717;42.614;23.418;2022-09-09T00:11:46;13.82;;;10.32;;
33357;SDS011;19717;42.614;23.418;2022-09-09T00:14:56;14.52;;;9.65;;
33357;SDS011;19717;42.614;23.418;2022-09-09T00:17:04;17.83;;;10.48;;
33357;SDS011;19717;42.614;23.418;2022-09-09T00:20:21;15.98;;;10.52;;
33357;SDS011;19717;42.614;23.418;2022-09-09T00:22:20;14.82;;;10.57;;
33357;SDS011;19717;42.614;23.418;2022-09-09T00:24:51;14.10;;;10.85;;
33357;SDS011;19717;42.614;23.418;2022-09-09T00:27:25;14.13;;;11.00;;
33357;SDS011;19717;42.614;23.418;2022-09-09T00:30:17;13.90;;;10.88;;
33357;SDS011;19717;42.614;23.418;2022-09-09T00:32:47;15.00;;;10.52;;
33357;SDS011;19717;42.614;23.418;2022-09-09T00:37:43;14.10;;;10.32;;
33357;SDS011;19717;42.614;23.418;2022-09-09T00:42:48;17.35;;;10.38;;
33357;SDS011;19717;42.614;23.418;2022-09-09T00:48:10;16.00;;;10.65;;
33357;SDS011;19717;42.614;23.418;2022-09-09T00:58:10;14.20;;;10.65;;
33357;SDS011;19717;42.614;23.418;2022-09-09T01:10:53;13.55;;;10.45;;
33357;SDS011;19717;42.614;23.418;2022-09-09T01:13:22;17.13;;;11.05;;
33357;SDS011;19717;42.614;23.418;2022-09-09T01:15:49;14.40;;;10.88;;
33357;SDS011;19717;42.614;23.418;2022-09-09T01:18:19;15.57;;;11.23;;
33357;SDS011;19717;42.614;23.418;2022-09-09T01:26:13;12.88;;;10.73;;
33357;SDS011;19717;42.614;23.418;2022-09-09T01:28:43;12.38;;;10.05;;
33357;SDS011;19717;42.614;23.418;2022-09-09T01:31:11;16.48;;;11.55;;
33357;SDS011;19717;42.614;23.418;2022-09-09T01:33:38;18.98;;;11.05;;
33357;SDS011;19717;42.614;23.418;2022-09-09T01:36:21;13.68;;;10.30;;
33357;SDS011;19717;42.614;23.418;2022-09-09T01:38:50;13.95;;;11.07;;
33357;SDS011;19717;42.614;23.418;2022-09-09T01:41:16;14.45;;;10.48;;
33357;SDS011;19717;42.614;23.418;2022-09-09T01:43:42;13.48;;;10.73;;
33357;SDS011;19717;42.614;23.418;2022-09-09T01:46:08;14.23;;;10.77;;
33357;SDS011;19717;42.614;23.418;2022-09-09T01:48:35;13.02;;;10.93;;
33357;SDS011;19717;42.614;23.418;2022-09-09T01:51:02;15.40;;;10.98;;
33357;SDS011;19717;42.614;23.418;2022-09-09T01:53:28;22.80;;;10.80;;
33357;SDS011;19717;42.614;23.418;2022-09-09T02:01:23;14.15;;;11.30;;
33357;SDS011;19717;42.614;23.418;2022-09-09T02:03:53;18.73;;;11.80;;
33357;SDS011;19717;42.614;23.418;2022-09-09T02:06:25;19.13;;;11.80;;
33357;SDS011;19717;42.614;23.418;2022-09-09T02:08:53;14.90;;;11.45;;
33357;SDS011;19717;42.614;23.418;2022-09-09T02:11:24;18.38;;;12.13;;
33357;SDS011;19717;42.614;23.418;2022-09-09T02:13:52;14.90;;;10.82;;
33357;SDS011;19717;42.614;23.418;2022-09-09T02:16:34;13.07;;;10.95;;
33357;SDS011;19717;42.614;23.418;2022-09-09T02:19:07;15.65;;;11.02;;
33357;SDS011;19717;42.614;23.418;2022-09-09T02:21:34;15.75;;;11.27;;
33357;SDS011;19717;42.614;23.418;2022-09-09T02:24:02;16.35;;;11.25;;
33357;SDS011;19717;42.614;23.418;2022-09-09T02:26:30;16.85;;;10.68;;
33357;SDS011;19717;42.614;23.418;2022-09-09T02:28:57;16.80;;;11.38;;
33357;SDS011;19717;42.614;23.418;2022-09-09T02:31:24;13.63;;;11.13;;
33357;SDS011;19717;42.614;23.418;2022-09-09T02:33:52;14.93;;;11.52;;
33357;SDS011;19717;42.614;23.418;2022-09-09T02:36:19;15.43;;;10.98;;
33357;SDS011;19717;42.614;23.418;2022-09-09T02:38:46;16.52;;;11.43;;
33357;SDS011;19717;42.614;23.418;2022-09-09T02:41:19;12.80;;;10.13;;
33357;SDS011;19717;42.614;23.418;2022-09-09T02:43:46;15.63;;;10.63;;
33357;SDS011;19717;42.614;23.418;2022-09-09T02:46:23;16.52;;;11.85;;
33357;SDS011;19717;42.614;23.418;2022-09-09T02:49:02;17.42;;;11.18;;
33357;SDS011;19717;42.614;23.418;2022-09-09T02:51:44;18.45;;;11.43;;
33357;SDS011;19717;42.614;23.418;2022-09-09T02:54:20;15.13;;;10.95;;
33357;SDS011;19717;42.614;23.418;2022-09-09T02:56:51;15.05;;;11.90;;
33357;SDS011;19717;42.614;23.418;2022-09-09T02:59:19;17.02;;;11.52;;
33357;SDS011;19717;42.614;23.418;2022-09-09T03:01:45;14.45;;;11.07;;
33357;SDS011;19717;42.614;23.418;2022-09-09T03:04:12;14.23;;;11.57;;
33357;SDS011;19717;42.614;23.418;2022-09-09T03:06:38;13.88;;;10.68;;
33357;SDS011;19717;42.614;23.418;2022-09-09T03:09:04;14.25;;;11.38;;
33357;SDS011;19717;42.614;23.418;2022-09-09T03:11:30;14.90;;;11.40;;
33357;SDS011;19717;42.614;23.418;2022-09-09T03:13:57;15.68;;;10.80;;
33357;SDS011;19717;42.614;23.418;2022-09-09T03:16:23;18.17;;;10.85;;
33357;SDS011;19717;42.614;23.418;2022-09-09T03:18:49;17.45;;;11.85;;
33357;SDS011;19717;42.614;23.418;2022-09-09T03:21:15;13.82;;;11.48;;
33357;SDS011;19717;42.614;23.418;2022-09-09T03:23:41;19.40;;;11.60;;
33357;SDS011;19717;42.614;23.418;2022-09-09T03:26:07;15.32;;;10.80;;
33357;SDS011;19717;42.614;23.418;2022-09-09T03:28:33;14.45;;;11.88;;
33357;SDS011;19717;42.614;23.418;2022-09-09T03:31:01;15.77;;;12.05;;
33357;SDS011;19717;42.614;23.418;2022-09-09T03:33:27;17.48;;;11.80;;
33357;SDS011;19717;42.614;23.418;2022-09-09T03:35:54;17.20;;;11.93;;
33357;SDS011;19717;42.614;23.418;2022-09-09T03:38:22;14.23;;;11.68;;
33357;SDS011;19717;42.614;23.418;2022-09-09T03:40:51;16.13;;;12.18;;
33357;SDS011;19717;42.614;23.418;2022-09-09T03:43:22;18.15;;;12.68;;
33357;SDS011;19717;42.614;23.418;2022-09-09T03:45:48;19.58;;;12.73;;
33357;SDS011;19717;42.614;23.418;2022-09-09T03:48:15;19.30;;;12.07;;
33357;SDS011;19717;42.614;23.418;2022-09-09T03:50:45;14.80;;;11.80;;
33357;SDS011;19717;42.614;23.418;2022-09-09T03:53:11;19.77;;;12.38;;
33357;SDS011;19717;42.614;23.418;2022-09-09T03:55:37;17.60;;;13.32;;
33357;SDS011;19717;42.614;23.418;2022-09-09T03:58:03;18.48;;;12.73;;
33357;SDS011;19717;42.614;23.418;2022-09-09T04:00:29;16.30;;;12.45;;
33357;SDS011;19717;42.614;23.418;2022-09-09T04:02:55;17.20;;;12.20;;
33357;SDS011;19717;42.614;23.418;2022-09-09T04:05:21;19.98;;;12.00;;
33357;SDS011;19717;42.614;23.418;2022-09-09T04:07:47;15.98;;;11.77;;
33357;SDS011;19717;42.614;23.418;2022-09-09T04:10:14;17.80;;;11.82;;
33357;SDS011;19717;42.614;23.418;2022-09-09T04:12:40;22.55;;;12.40;;
33357;SDS011;19717;42.614;23.418;2022-09-09T04:15:07;17.25;;;12.35;;
33357;SDS011;19717;42.614;23.418;2022-09-09T04:17:33;15.98;;;12.02;;
33357;SDS011;19717;42.614;23.418;2022-09-09T04:20:01;17.42;;;12.70;;
33357;SDS011;19717;42.614;23.418;2022-09-09T04:22:27;17.25;;;11.85;;
33357;SDS011;19717;42.614;23.418;2022-09-09T04:24:53;17.88;;;11.95;;
33357;SDS011;19717;42.614;23.418;2022-09-09T04:27:19;19.83;;;11.43;;
33357;SDS011;19717;42.614;23.418;2022-09-09T04:29:45;15.45;;;11.85;;
33357;SDS011;19717;42.614;23.418;2022-09-09T04:32:11;16.15;;;11.50;;
33357;SDS011;19717;42.614;23.418;2022-09-09T04:34:37;16.30;;;11.85;;
33357;SDS011;19717;42.614;23.418;2022-09-09T04:37:03;16.38;;;12.35;;
33357;SDS011;19717;42.614;23.418;2022-09-09T04:39:29;14.95;;;11.77;;
33357;SDS011;19717;42.614;23.418;2022-09-09T04:41:56;17.23;;;12.43;;
33357;SDS011;19717;42.614;23.418;2022-09-09T04:44:22;19.65;;;12.80;;
33357;SDS011;19717;42.614;23.418;2022-09-09T04:46:48;20.38;;;12.23;;
33357;SDS011;19717;42.614;23.418;2022-09-09T04:49:14;16.70;;;11.98;;
33357;SDS011;19717;42.614;23.418;2022-09-09T04:51:40;18.33;;;12.85;;
33357;SDS011;19717;42.614;23.418;2022-09-09T04:54:06;19.65;;;12.82;;
33357;SDS011;19717;42.614;23.418;2022-09-09T04:56:32;23.48;;;13.27;;
33357;SDS011;19717;42.614;23.418;2022-09-09T04:58:58;23.13;;;12.93;;
33357;SDS011;19717;42.614;23.418;2022-09-09T05:01:25;17.58;;;12.63;;
33357;SDS011;19717;42.614;23.418;2022-09-09T05:03:52;24.27;;;12.90;;
33357;SDS011;19717;42.614;23.418;2022-09-09T05:06:19;17.90;;;12.60;;
33357;SDS011;19717;42.614;23.418;2022-09-09T05:08:45;19.35;;;11.93;;
33357;SDS011;19717;42.614;23.418;2022-09-09T05:11:23;21.10;;;12.07;;
33357;SDS011;19717;42.614;23.418;2022-09-09T05:13:51;14.68;;;11.77;;
33357;SDS011;19717;42.614;23.418;2022-09-09T05:16:17;18.25;;;13.35;;
33357;SDS011;19717;42.614;23.418;2022-09-09T05:18:43;20.23;;;13.23;;
33357;SDS011;19717;42.614;23.418;2022-09-09T05:21:11;18.50;;;12.00;;
33357;SDS011;19717;42.614;23.418;2022-09-09T05:23:37;17.60;;;12.40;;
33357;SDS011;19717;42.614;23.418;2022-09-09T05:26:04;18.33;;;13.35;;
33357;SDS011;19717;42.614;23.418;2022-09-09T05:28:30;19.90;;;12.38;;
33357;SDS011;19717;42.614;23.418;2022-09-09T05:30:57;14.90;;;11.55;;
33357;SDS011;19717;42.614;23.418;2022-09-09T05:33:24;14.63;;;10.75;;
33357;SDS011;19717;42.614;23.418;2022-09-09T05:36:01;16.08;;;11.45;;
33357;SDS011;19717;42.614;23.418;2022-09-09T05:38:28;19.67;;;11.77;;
33357;SDS011;19717;42.614;23.418;2022-09-09T05:40:54;23.75;;;10.88;;
33357;SDS011;19717;42.614;23.418;2022-09-09T05:43:21;24.40;;;11.18;;
33357;SDS011;19717;42.614;23.418;2022-09-09T05:45:48;22.60;;;11.43;;
33357;SDS011;19717;42.614;23.418;2022-09-09T05:48:14;19.80;;;10.75;;
33357;SDS011;19717;42.614;23.418;2022-09-09T05:50:41;15.35;;;9.93;;
33357;SDS011;19717;42.614;23.418;2022-09-09T05:53:07;16.48;;;9.63;;
33357;SDS011;19717;42.614;23.418;2022-09-09T05:55:33;22.98;;;10.65;;
33357;SDS011;19717;42.614;23.418;2022-09-09T05:57:59;15.23;;;10.15;;
33357;SDS011;19717;42.614;23.418;2022-09-09T06:00:26;18.73;;;9.30;;
33357;SDS011;19717;42.614;23.418;2022-09-09T06:02:52;13.90;;;9.40;;
33357;SDS011;19717;42.614;23.418;2022-09-09T06:05:18;16.25;;;8.98;;
33357;SDS011;19717;42.614;23.418;2022-09-09T06:07:45;17.55;;;8.85;;
33357;SDS011;19717;42.614;23.418;2022-09-09T06:10:11;14.15;;;9.50;;
33357;SDS011;19717;42.614;23.418;2022-09-09T06:12:39;12.18;;;9.02;;
33357;SDS011;19717;42.614;23.418;2022-09-09T06:15:05;13.77;;;8.77;;
33357;SDS011;19717;42.614;23.418;2022-09-09T06:17:32;14.50;;;9.30;;
33357;SDS011;19717;42.614;23.418;2022-09-09T06:19:58;13.70;;;9.30;;
33357;SDS011;19717;42.614;23.418;2022-09-09T06:22:24;15.38;;;8.98;;
33357;SDS011;19717;42.614;23.418;2022-09-09T06:24:50;11.88;;;8.75;;
33357;SDS011;19717;42.614;23.418;2022-09-09T06:27:16;10.05;;;8.30;;
33357;SDS011;19717;42.614;23.418;2022-09-09T06:29:42;15.05;;;8.25;;
33357;SDS011;19717;42.614;23.418;2022-09-09T06:32:08;11.32;;;8.00;;
33357;SDS011;19717;42.614;23.418;2022-09-09T06:34:34;13.15;;;8.63;;
33357;SDS011;19717;42.614;23.418;2022-09-09T06:37:01;17.15;;;8.63;;
33357;SDS011;19717;42.614;23.418;2022-09-09T06:39:27;14.52;;;8.30;;
33357;SDS011;19717;42.614;23.418;2022-09-09T06:41:53;13.98;;;8.07;;
33357;SDS011;19717;42.614;23.418;2022-09-09T06:44:20;13.23;;;8.45;;
33357;SDS011;19717;42.614;23.418;2022-09-09T06:46:47;14.05;;;7.45;;
33357;SDS011;19717;42.614;23.418;2022-09-09T06:49:14;11.40;;;8.60;;
33357;SDS011;19717;42.614;23.418;2022-09-09T06:51:41;12.27;;;8.15;;
33357;SDS011;19717;42.614;23.418;2022-09-09T06:54:10;13.07;;;8.45;;
33357;SDS011;19717;42.614;23.418;2022-09-09T06:56:40;14.57;;;7.88;;
33357;SDS011;19717;42.614;23.418;2022-09-09T07:18:42;13.20;;;7.80;;
33357;SDS011;19717;42.614;23.418;2022-09-09T07:21:09;14.05;;;6.97;;
33357;SDS011;19717;42.614;23.418;2022-09-09T07:23:37;12.45;;;7.25;;
33357;SDS011;19717;42.614;23.418;2022-09-09T07:26:07;10.82;;;7.20;;
33357;SDS011;19717;42.614;23.418;2022-09-09T07:28:33;11.15;;;6.97;;
33357;SDS011;19717;42.614;23.418;2022-09-09T07:31:00;8.93;;;6.78;;
33357;SDS011;19717;42.614;23.418;2022-09-09T07:33:30;9.55;;;6.60;;
33357;SDS011;19717;42.614;23.418;2022-09-09T07:36:10;12.50;;;6.80;;
33357;SDS011;19717;42.614;23.418;2022-09-09T07:38:42;8.35;;;6.88;;
33357;SDS011;19717;42.614;23.418;2022-09-09T07:41:10;14.18;;;6.90;;
33357;SDS011;19717;42.614;23.418;2022-09-09T07:43:38;10.18;;;6.72;;
33357;SDS011;19717;42.614;23.418;2022-09-09T07:46:05;13.68;;;6.55;;
33357;SDS011;19717;42.614;23.418;2022-09-09T07:48:31;14.15;;;6.85;;
33357;SDS011;19717;42.614;23.418;2022-09-09T07:51:08;13.57;;;6.95;;
33357;SDS011;19717;42.614;23.418;2022-09-09T07:53:35;13.05;;;7.47;;
33357;SDS011;19717;42.614;23.418;2022-09-09T07:56:07;15.38;;;6.85;;
33357;SDS011;19717;42.614;23.418;2022-09-09T07:58:34;8.27;;;6.90;;
33357;SDS011;19717;42.614;23.418;2022-09-09T08:01:05;11.70;;;6.80;;
33357;SDS011;19717;42.614;23.418;2022-09-09T08:03:31;12.55;;;6.93;;
33357;SDS011;19717;42.614;23.418;2022-09-09T08:06:00;9.50;;;6.05;;
33357;SDS011;19717;42.614;23.418;2022-09-09T08:08:26;12.45;;;6.60;;
33357;SDS011;19717;42.614;23.418;2022-09-09T08:10:52;12.18;;;6.20;;
33357;SDS011;19717;42.614;23.418;2022-09-09T08:13:18;13.30;;;6.40;;
33357;SDS011;19717;42.614;23.418;2022-09-09T08:15:44;11.45;;;6.22;;
33357;SDS011;19717;42.614;23.418;2022-09-09T08:18:10;11.27;;;6.40;;
33357;SDS011;19717;42.614;23.418;2022-09-09T08:20:37;10.77;;;6.95;;
33357;SDS011;19717;42.614;23.418;2022-09-09T08:23:03;12.98;;;6.03;;
33357;SDS011;19717;42.614;23.418;2022-09-09T08:25:29;10.43;;;6.38;;
33357;SDS011;19717;42.614;23.418;2022-09-09T08:27:55;13.65;;;6.80;;
33357;SDS011;19717;42.614;23.418;2022-09-09T08:30:21;16.23;;;6.32;;
33357;SDS011;19717;42.614;23.418;2022-09-09T08:32:48;12.23;;;6.47;;
33357;SDS011;19717;42.614;23.418;2022-09-09T08:35:16;13.40;;;6.22;;
33357;SDS011;19717;42.614;23.418;2022-09-09T08:37:42;8.98;;;6.97;;
33357;SDS011;19717;42.614;23.418;2022-09-09T08:40:10;7.28;;;6.22;;
33357;SDS011;19717;42.614;23.418;2022-09-09T08:42:47;9.95;;;6.00;;
33357;SDS011;19717;42.614;23.418;2022-09-09T08:45:18;8.70;;;6.60;;
33357;SDS011;19717;42.614;23.418;2022-09-09T08:50:28;10.90;;;6.72;;
33357;SDS011;19717;42.614;23.418;2022-09-09T08:58:32;11.45;;;6.88;;
33357;SDS011;19717;42.614;23.418;2022-09-09T09:11:18;13.63;;;6.80;;
33357;SDS011;19717;42.614;23.418;2022-09-09T09:16:22;13.15;;;6.85;;
33357;SDS011;19717;42.614;23.418;2022-09-09T09:18:49;15.20;;;6.65;;
33357;SDS011;19717;42.614;23.418;2022-09-09T09:21:18;14.18;;;6.60;;
33357;SDS011;19717;42.614;23.418;2022-09-09T09:24:04;10.48;;;6.30;;
33357;SDS011;19717;42.614;23.418;2022-09-09T09:26:33;9.63;;;6.60;;
33357;SDS011;19717;42.614;23.418;2022-09-09T09:29:00;8.93;;;6.55;;
33357;SDS011;19717;42.614;23.418;2022-09-09T09:31:33;15.13;;;6.32;;
33357;SDS011;19717;42.614;23.418;2022-09-09T09:33:59;9.68;;;6.53;;
33357;SDS011;19717;42.614;23.418;2022-09-09T09:36:33;12.18;;;6.70;;
33357;SDS011;19717;42.614;23.418;2022-09-09T09:39:00;13.10;;;6.22;;
33357;SDS011;19717;42.614;23.418;2022-09-09T09:43:55;12.65;;;6.72;;
33357;SDS011;19717;42.614;23.418;2022-09-09T09:46:22;9.43;;;6.57;;
33357;SDS011;19717;42.614;23.418;2022-09-09T09:49:02;9.63;;;6.43;;
33357;SDS011;19717;42.614;23.418;2022-09-09T09:51:29;13.40;;;6.70;;
33357;SDS011;19717;42.614;23.418;2022-09-09T09:54:08;9.88;;;6.88;;
33357;SDS011;19717;42.614;23.418;2022-09-09T09:56:35;14.85;;;7.35;;
33357;SDS011;19717;42.614;23.418;2022-09-09T09:59:01;10.57;;;6.70;;
33357;SDS011;19717;42.614;23.418;2022-09-09T10:01:28;8.60;;;6.07;;
33357;SDS011;19717;42.614;23.418;2022-09-09T10:03:57;9.75;;;6.72;;
33357;SDS011;19717;42.614;23.418;2022-09-09T10:06:30;9.77;;;6.60;;
33357;SDS011;19717;42.614;23.418;2022-09-09T10:08:56;11.32;;;6.38;;
33357;SDS011;19717;42.614;23.418;2022-09-09T10:11:25;10.50;;;6.63;;
33357;SDS011;19717;42.614;23.418;2022-09-09T10:18:59;11.75;;;6.57;;
33357;SDS011;19717;42.614;23.418;2022-09-09T10:25:01;11.18;;;6.60;;
33357;SDS011;19717;42.614;23.418;2022-09-09T10:29:38;17.13;;;6.82;;
33357;SDS011;19717;42.614;23.418;2022-09-09T10:39:49;11.45;;;7.35;;
33357;SDS011;19717;42.614;23.418;2022-09-09T10:42:23;10.98;;;6.43;;
33357;SDS011;19717;42.614;23.418;2022-09-09T10:55:49;13.25;;;6.72;;
33357;SDS011;19717;42.614;23.418;2022-09-09T10:58:27;7.35;;;6.32;;
33357;SDS011;19717;42.614;23.418;2022-09-09T11:00:59;15.15;;;7.43;;
33357;SDS011;19717;42.614;23.418;2022-09-09T11:03:28;12.65;;;6.60;;
33357;SDS011;19717;42.614;23.418;2022-09-09T11:05:56;17.45;;;6.95;;
33357;SDS011;19717;42.614;23.418;2022-09-09T11:08:26;13.30;;;7.13;;
33357;SDS011;19717;42.614;23.418;2022-09-09T11:11:36;14.77;;;6.85;;
33357;SDS011;19717;42.614;23.418;2022-09-09T11:18:48;10.75;;;7.30;;
33357;SDS011;19717;42.614;23.418;2022-09-09T11:21:26;17.55;;;7.30;;
33357;SDS011;19717;42.614;23.418;2022-09-09T11:23:54;16.85;;;7.57;;
33357;SDS011;19717;42.614;23.418;2022-09-09T11:26:29;9.88;;;7.13;;
33357;SDS011;19717;42.614;23.418;2022-09-09T11:34:08;12.52;;;8.00;;
33357;SDS011;19717;42.614;23.418;2022-09-09T11:36:51;13.70;;;7.75;;
33357;SDS011;19717;42.614;23.418;2022-09-09T11:44:38;10.98;;;7.03;;
33357;SDS011;19717;42.614;23.418;2022-09-09T11:47:14;11.73;;;7.50;;
33357;SDS011;19717;42.614;23.418;2022-09-09T11:49:41;13.40;;;7.90;;
33357;SDS011;19717;42.614;23.418;2022-09-09T11:52:12;17.23;;;8.27;;
33357;SDS011;19717;42.614;23.418;2022-09-09T11:54:46;14.95;;;8.65;;
33357;SDS011;19717;42.614;23.418;2022-09-09T11:57:24;16.75;;;8.23;;
33357;SDS011;19717;42.614;23.418;2022-09-09T11:59:51;10.88;;;7.50;;
33357;SDS011;19717;42.614;23.418;2022-09-09T12:04:54;14.88;;;7.68;;
33357;SDS011;19717;42.614;23.418;2022-09-09T12:12:34;15.48;;;7.88;;
33357;SDS011;19717;42.614;23.418;2022-09-09T12:17:40;15.00;;;8.15;;
33357;SDS011;19717;42.614;23.418;2022-09-09T12:20:18;14.05;;;7.90;;
33357;SDS011;19717;42.614;23.418;2022-09-09T12:23:30;19.80;;;8.02;;
33357;SDS011;19717;42.614;23.418;2022-09-09T12:28:39;19.00;;;7.90;;
33357;SDS011;19717;42.614;23.418;2022-09-09T12:31:19;19.30;;;7.95;;
33357;SDS011;19717;42.614;23.418;2022-09-09T12:33:47;15.55;;;8.00;;
33357;SDS011;19717;42.614;23.418;2022-09-09T12:36:20;15.50;;;7.88;;
33357;SDS011;19717;42.614;23.418;2022-09-09T12:38:48;15.77;;;8.40;;
33357;SDS011;19717;42.614;23.418;2022-09-09T12:41:20;17.08;;;8.07;;
33357;SDS011;19717;42.614;23.418;2022-09-09T12:43:46;14.02;;;8.15;;
33357;SDS011;19717;42.614;23.418;2022-09-09T12:46:20;18.27;;;8.90;;
33357;SDS011;19717;42.614;23.418;2022-09-09T12:48:47;20.50;;;8.40;;
33357;SDS011;19717;42.614;23.418;2022-09-09T12:51:21;13.38;;;7.95;;
33357;SDS011;19717;42.614;23.418;2022-09-09T12:53:50;13.00;;;7.53;;
33357;SDS011;19717;42.614;23.418;2022-09-09T12:56:22;14.88;;;7.70;;
33357;SDS011;19717;42.614;23.418;2022-09-09T12:58:50;16.83;;;7.90;;
33357;SDS011;19717;42.614;23.418;2022-09-09T13:01:27;26.27;;;7.97;;
33357;SDS011;19717;42.614;23.418;2022-09-09T13:03:54;19.52;;;8.10;;
33357;SDS011;19717;42.614;23.418;2022-09-09T13:06:24;16.35;;;8.02;;
33357;SDS011;19717;42.614;23.418;2022-09-09T13:08:53;14.73;;;7.55;;
33357;SDS011;19717;42.614;23.418;2022-09-09T13:11:21;14.43;;;7.68;;
33357;SDS011;19717;42.614;23.418;2022-09-09T13:13:50;19.58;;;7.80;;
33357;SDS011;19717;42.614;23.418;2022-09-09T13:16:25;11.05;;;7.75;;
33357;SDS011;19717;42.614;23.418;2022-09-09T13:18:55;21.23;;;7.88;;
33357;SDS011;19717;42.614;23.418;2022-09-09T13:21:30;25.67;;;7.95;;
33357;SDS011;19717;42.614;23.418;2022-09-09T13:23:56;17.10;;;8.00;;
33357;SDS011;19717;42.614;23.418;2022-09-09T13:26:28;13.40;;;7.85;;
33357;SDS011;19717;42.614;23.418;2022-09-09T13:28:55;18.92;;;7.57;;
33357;SDS011;19717;42.614;23.418;2022-09-09T13:31:33;16.52;;;8.05;;
33357;SDS011;19717;42.614;23.418;2022-09-09T13:33:59;14.40;;;7.80;;
33357;SDS011;19717;42.614;23.418;2022-09-09T13:36:35;13.52;;;7.13;;
33357;SDS011;19717;42.614;23.418;2022-09-09T13:39:02;9.93;;;7.35;;
33357;SDS011;19717;42.614;23.418;2022-09-09T13:41:31;17.13;;;7.78;;
33357;SDS011;19717;42.614;23.418;2022-09-09T13:43:58;14.48;;;7.25;;
33357;SDS011;19717;42.614;23.418;2022-09-09T13:46:34;14.13;;;7.63;;
33357;SDS011;19717;42.614;23.418;2022-09-09T13:52:02;16.75;;;7.57;;
33357;SDS011;19717;42.614;23.418;2022-09-09T13:54:28;11.57;;;7.50;;
33357;SDS011;19717;42.614;23.418;2022-09-09T13:56:55;11.98;;;7.10;;
33357;SDS011;19717;42.614;23.418;2022-09-09T13:59:21;16.73;;;7.60;;
33357;SDS011;19717;42.614;23.418;2022-09-09T14:01:49;14.70;;;7.15;;
33357;SDS011;19717;42.614;23.418;2022-09-09T14:04:17;18.17;;;7.22;;
33357;SDS011;19717;42.614;23.418;2022-09-09T14:06:45;12.20;;;6.95;;
33357;SDS011;19717;42.614;23.418;2022-09-09T14:09:12;21.10;;;8.15;;
33357;SDS011;19717;42.614;23.418;2022-09-09T14:11:39;18.45;;;8.15;;
33357;SDS011;19717;42.614;23.418;2022-09-09T14:14:05;19.63;;;8.43;;
33357;SDS011;19717;42.614;23.418;2022-09-09T14:16:32;20.80;;;7.57;;
33357;SDS011;19717;42.614;23.418;2022-09-09T14:18:58;15.90;;;8.35;;
33357;SDS011;19717;42.614;23.418;2022-09-09T14:21:24;17.58;;;7.57;;
33357;SDS011;19717;42.614;23.418;2022-09-09T14:23:50;21.92;;;8.93;;
33357;SDS011;19717;42.614;23.418;2022-09-09T14:26:18;15.98;;;8.18;;
33357;SDS011;19717;42.614;23.418;2022-09-09T14:28:46;15.55;;;7.53;;
33357;SDS011;19717;42.614;23.418;2022-09-09T14:31:12;14.52;;;7.75;;
33357;SDS011;19717;42.614;23.418;2022-09-09T14:33:38;20.70;;;8.00;;
33357;SDS011;19717;42.614;23.418;2022-09-09T14:36:05;13.63;;;8.27;;
33357;SDS011;19717;42.614;23.418;2022-09-09T14:38:31;15.55;;;7.65;;
33357;SDS011;19717;42.614;23.418;2022-09-09T14:40:58;16.92;;;7.82;;
33357;SDS011;19717;42.614;23.418;2022-09-09T14:43:25;11.15;;;7.30;;
33357;SDS011;19717;42.614;23.418;2022-09-09T14:45:52;11.80;;;7.45;;
33357;SDS011;19717;42.614;23.418;2022-09-09T14:48:18;11.43;;;7.35;;
33357;SDS011;19717;42.614;23.418;2022-09-09T14:50:44;11.85;;;7.25;;
33357;SDS011;19717;42.614;23.418;2022-09-09T14:53:10;12.48;;;7.05;;
33357;SDS011;19717;42.614;23.418;2022-09-09T14:55:36;12.30;;;7.90;;
33357;SDS011;19717;42.614;23.418;2022-09-09T14:58:03;13.65;;;7.15;;
33357;SDS011;19717;42.614;23.418;2022-09-09T15:00:31;12.95;;;7.55;;
33357;SDS011;19717;42.614;23.418;2022-09-09T15:02:57;10.80;;;7.25;;
33357;SDS011;19717;42.614;23.418;2022-09-09T15:05:23;20.90;;;7.10;;
33357;SDS011;19717;42.614;23.418;2022-09-09T15:07:49;14.15;;;7.03;;
33357;SDS011;19717;42.614;23.418;2022-09-09T15:10:15;16.08;;;7.55;;
33357;SDS011;19717;42.614;23.418;2022-09-09T15:12:42;15.32;;;7.50;;
33357;SDS011;19717;42.614;23.418;2022-09-09T15:15:08;17.35;;;9.30;;
33357;SDS011;19717;42.614;23.418;2022-09-09T15:17:35;21.83;;;10.20;;
33357;SDS011;19717;42.614;23.418;2022-09-09T15:20:02;20.83;;;9.43;;
33357;SDS011;19717;42.614;23.418;2022-09-09T15:22:30;18.30;;;9.70;;
33357;SDS011;19717;42.614;23.418;2022-09-09T15:24:56;19.80;;;10.25;;
33357;SDS011;19717;42.614;23.418;2022-09-09T15:27:22;22.85;;;9.07;;
33357;SDS011;19717;42.614;23.418;2022-09-09T15:29:49;19.83;;;8.70;;
33357;SDS011;19717;42.614;23.418;2022-09-09T15:32:16;23.05;;;8.65;;
33357;SDS011;19717;42.614;23.418;2022-09-09T15:34:42;17.88;;;8.82;;
33357;SDS011;19717;42.614;23.418;2022-09-09T15:37:11;9.73;;;7.97;;
33357;SDS011;19717;42.614;23.418;2022-09-09T15:39:38;15.57;;;8.38;;
33357;SDS011;19717;42.614;23.418;2022-09-09T15:42:04;14.25;;;8.38;;
33357;SDS011;19717;42.614;23.418;2022-09-09T15:44:41;15.43;;;8.23;;
33357;SDS011;19717;42.614;23.418;2022-09-09T15:47:09;16.42;;;8.18;;
33357;SDS011;19717;42.614;23.418;2022-09-09T15:49:36;18.80;;;8.50;;
33357;SDS011;19717;42.614;23.418;2022-09-09T15:52:03;29.77;;;9.27;;
33357;SDS011;19717;42.614;23.418;2022-09-09T15:54:35;23.48;;;9.02;;
33357;SDS011;19717;42.614;23.418;2022-09-09T15:57:04;17.30;;;8.25;;
33357;SDS011;19717;42.614;23.418;2022-09-09T15:59:31;14.40;;;8.10;;
33357;SDS011;19717;42.614;23.418;2022-09-09T16:01:58;17.02;;;8.57;;
33357;SDS011;19717;42.614;23.418;2022-09-09T16:04:25;18.80;;;8.75;;
33357;SDS011;19717;42.614;23.418;2022-09-09T16:07:01;15.73;;;8.77;;
33357;SDS011;19717;42.614;23.418;2022-09-09T16:09:29;16.85;;;8.27;;
33357;SDS011;19717;42.614;23.418;2022-09-09T16:11:55;15.07;;;8.88;;
33357;SDS011;19717;42.614;23.418;2022-09-09T16:14:23;17.67;;;8.35;;
33357;SDS011;19717;42.614;23.418;2022-09-09T16:16:50;13.95;;;8.73;;
33357;SDS011;19717;42.614;23.418;2022-09-09T16:19:17;18.63;;;9.20;;
33357;SDS011;19717;42.614;23.418;2022-09-09T16:21:47;23.95;;;8.95;;
33357;SDS011;19717;42.614;23.418;2022-09-09T16:24:15;14.73;;;8.55;;
33357;SDS011;19717;42.614;23.418;2022-09-09T16:26:46;14.43;;;9.10;;
33357;SDS011;19717;42.614;23.418;2022-09-09T16:29:13;13.50;;;8.70;;
33357;SDS011;19717;42.614;23.418;2022-09-09T16:31:39;18.35;;;9.35;;
33357;SDS011;19717;42.614;23.418;2022-09-09T16:34:06;21.52;;;9.93;;
33357;SDS011;19717;42.614;23.418;2022-09-09T16:36:33;15.00;;;8.80;;
33357;SDS011;19717;42.614;23.418;2022-09-09T16:39:00;15.55;;;8.90;;
33357;SDS011;19717;42.614;23.418;2022-09-09T16:41:27;17.10;;;9.35;;
33357;SDS011;19717;42.614;23.418;2022-09-09T16:43:54;12.65;;;9.13;;
33357;SDS011;19717;42.614;23.418;2022-09-09T16:46:21;19.95;;;8.95;;
33357;SDS011;19717;42.614;23.418;2022-09-09T16:48:49;15.13;;;8.95;;